Flight Track Log - Related Links

Times and Time Zones

All times are in EDT time to prevent confusion due to time zone crossing. See the ASH3733 flight status page for this flight to view local times or setup timezone preferences in your user account.

Time Position Orientation Groundspeed Altitude Reporting Facility
EDT Latitude Longitude Course Direction KTS MPH feet Rate Location/Type
Tue 02:45:41 PM 29.9789 -95.3560 151° Southeast 138 159 100  Level FlightAware ADS-B (KHOU)
Tue 02:45:56 PM 29.9672 -95.3488 152° Southeast 167 192 300 1,548 Climbing FlightAware ADS-B (KHOU)
Tue 02:46:12 PM 29.9570 -95.3424 144° Southeast 167 192 900 2,471 Climbing FlightAware ADS-B (KHOU)
Tue 02:46:13 PM 29.9563 -95.3418 142° Southeast 168 193 1,000 3,600 Climbing FlightAware ADS-B
Tue 02:46:17 PM 29.9542 -95.3396 132° Southeast 170 196 1,200 2,667 Climbing FlightAware ADS-B (KHOU)
Tue 02:46:22 PM 29.9518 -95.3358 121° Southeast 174 200 1,400 2,000 Climbing FlightAware ADS-B (KHOU)
Tue 02:46:23 PM 29.9514 -95.3349 117° Southeast 176 203 1,400 1,500 Level FlightAware ADS-B
Tue 02:46:26 PM 29.9501 -95.3314 107° East 180 207 1,500 2,000 Climbing FlightAware ADS-B (KHOU)
Tue 02:46:32 PM 29.9494 -95.3269 95° East 186 214 1,700 1,714 Climbing FlightAware ADS-B (KHOU)
Tue 02:46:33 PM 29.9493 -95.3258 92° East 189 217 1,700 1,500 Level FlightAware ADS-B
Tue 02:46:36 PM 29.9493 -95.3238 87° East 192 221 1,800 667 Climbing FlightAware ADS-B
Tue 02:46:42 PM 29.9507 -95.3163 69° East 208 239 1,800 857 Level FlightAware ADS-B (KHOU)
Tue 02:46:43 PM 29.9511 -95.3152 67° East 210 242 1,900 1,200 Climbing FlightAware ADS-B
Tue 02:46:47 PM 29.9530 -95.3111 57° Northeast 219 252 1,900  Level FlightAware ADS-B (KHOU)
Tue 02:46:52 PM 29.9563 -95.3065 46° Northeast 229 264 1,900 667 Level FlightAware ADS-B (KHOU)
Tue 02:46:56 PM 29.9605 -95.3026 34° Northeast 237 273 2,000  Climbing FlightAware ADS-B
Tue 02:46:58 PM 29.9592 -95.3036 37° Northeast 236 272 1,900 1,000 Descending FlightAware ADS-B
Tue 02:47:02 PM 29.9653 -95.2997 23° Northeast 242 278 2,100 2,000 Climbing FlightAware ADS-B (KHOU)
Tue 02:47:04 PM 29.9681 -95.2986 19° North 242 278 2,100 2,667 Level FlightAware ADS-B
Tue 02:47:11 PM 29.9765 -95.2972 North 243 280 2,500 2,800 Climbing FlightAware ADS-B
Tue 02:47:19 PM 29.9853 -95.2972 359° North 242 278 2,800 2,500 Climbing FlightAware ADS-B
Tue 02:47:23 PM 29.9893 -95.2973 North 242 278 3,000 2,571 Climbing FlightAware ADS-B
Tue 02:47:26 PM 29.9916 -95.2975 358° North 243 280 3,100 2,400 Climbing FlightAware ADS-B
Tue 02:47:28 PM 29.9911 -95.2975 358° North 242 278 3,200 1,714 Climbing FlightAware ADS-B
Tue 02:47:33 PM 30.0008 -95.2981 357° North 252 290 3,300 1,091 Climbing FlightAware ADS-B
Tue 02:47:39 PM 30.0075 -95.2986 356° North 262 302 3,400 800 Climbing FlightAware ADS-B
Tue 02:47:48 PM 30.0198 -95.2997 356° North 271 312 3,500 1,200 Climbing FlightAware ADS-B
Tue 02:47:54 PM 30.0279 -95.3004 356° North 272 313 3,700 2,000 Climbing FlightAware ADS-B
Tue 02:48:03 PM 30.0390 -95.3014 356° North 287 330 4,000 2,000 Climbing FlightAware ADS-B
Tue 02:48:12 PM 30.0503 -95.3024 356° North 289 333 4,300 2,400 Climbing FlightAware ADS-B (KHOU)
Tue 02:48:18 PM 30.0575 -95.3029 357° North 289 333 4,600 3,000 Climbing FlightAware ADS-B
Tue 02:48:26 PM 30.0697 -95.3039 357° North 289 333 5,000 3,000 Climbing FlightAware ADS-B
Tue 02:48:32 PM 30.0771 -95.3043 359° North 290 334 5,300 2,727 Climbing FlightAware ADS-B (KHOU)
Tue 02:48:37 PM 30.0840 -95.3044 North 290 334 5,500 3,000 Climbing FlightAware ADS-B (KHOU)
Tue 02:48:38 PM 30.0863 -95.3045 North 291 335 5,600 2,769 Climbing FlightAware ADS-B
Tue 02:48:50 PM 30.1026 -95.3043 North 293 337 6,100 2,400 Climbing FlightAware ADS-B
Tue 02:48:58 PM 30.1135 -95.3042 North 296 341 6,400 2,625 Climbing FlightAware ADS-B
Tue 02:49:06 PM 30.1247 -95.3040 North 296 341 6,800 2,800 Climbing FlightAware ADS-B
Tue 02:49:13 PM 30.1327 -95.3039 North 296 341 7,100 2,800 Climbing FlightAware ADS-B
Tue 02:49:21 PM 30.1457 -95.3036 North 298 343 7,500 2,500 Climbing FlightAware ADS-B (KHOU)
Tue 02:49:25 PM 30.1490 -95.3036 North 297 342 7,600 2,000 Climbing FlightAware ADS-B
Tue 02:49:36 PM 30.1654 -95.3034 North 301 346 8,000 2,640 Climbing FlightAware ADS-B
Tue 02:49:50 PM 30.1847 -95.3031 North 302 348 8,700 2,571 Climbing FlightAware ADS-B
Tue 02:49:57 PM 30.1920 -95.3030 North 303 349 8,900 2,250 Climbing FlightAware ADS-B
Tue 02:50:06 PM 30.2076 -95.3028 North 306 352 9,300 2,640 Climbing FlightAware ADS-B
Tue 02:50:22 PM 30.2292 -95.3024 North 308 354 10,000 2,455 Climbing FlightAware ADS-B (KHOU)
Tue 02:50:28 PM 30.2361 -95.3020 North 307 353 10,200 1,448 Climbing FlightAware ADS-B
Tue 02:50:51 PM 30.2740 -95.2985 North 333 383 10,700 -14,769 Climbing FlightAware ADS-B (KHOU)
Tue 02:50:54 PM 30.2702 -95.2991 North 330 380 3,800 1,200 Descending FlightAware ADS-B
Tue 02:51:01 PM 30.2893 -95.2944 17° North 338 389 10,900 36,000 Climbing FlightAware ADS-B (KHOU)
Tue 02:51:06 PM 30.2915 -95.2935 18° North 339 390 11,000 2,250 Climbing FlightAware ADS-B
Tue 02:51:09 PM 30.3009 -95.2892 21° North 340 391 11,200 2,250 Climbing FlightAware ADS-B
Tue 02:51:22 PM 30.3179 -95.2787 31° Northeast 343 395 11,600 2,069 Climbing FlightAware ADS-B (KHOU)
Tue 02:51:38 PM 30.3398 -95.2623 18° North 339 390 12,200 2,100 Climbing FlightAware ADS-B
Tue 02:51:42 PM 30.3440 -95.2592 33° Northeast 346 398 12,300 1,636 Climbing FlightAware ADS-B (KHOU)
Tue 02:51:49 PM 30.3533 -95.2522 32° Northeast 347 399 12,500 2,000 Climbing FlightAware ADS-B
Tue 02:52:12 PM 30.3852 -95.2284 32° Northeast 349 402 13,300 1,935 Climbing FlightAware ADS-B (KHOU)
Tue 02:52:51 PM 30.4412 -95.1906 30° Northeast 358 412 14,500 1,765 Climbing FlightAware ADS-B (KHOU)
Tue 02:53:03 PM 30.4571 -95.1799 30° Northeast 361 415 14,800 1,742 Climbing FlightAware ADS-B
Tue 02:53:22 PM 30.4857 -95.1606 30° Northeast 365 420 15,400 1,750 Climbing FlightAware ADS-B (KHOU)
Tue 02:53:51 PM 30.5286 -95.1314 30° Northeast 369 425 16,200 1,600 Climbing FlightAware ADS-B (KHOU)
Tue 02:54:22 PM 30.5731 -95.1013 30° Northeast 376 433 17,000 1,672 Climbing FlightAware ADS-B (KHOU)
Tue 02:54:52 PM 30.6201 -95.0696 30° Northeast 378 435 17,900 1,729 Climbing FlightAware ADS-B (KHOU)
Tue 02:55:21 PM 30.6639 -95.0399 30° Northeast 380 437 18,700 1,525 Climbing FlightAware ADS-B (KHOU)
Tue 02:55:51 PM 30.7110 -95.0081 30° Northeast 384 442 19,400 1,279 Climbing FlightAware ADS-B (KHOU)
Tue 02:56:22 PM 30.7568 -94.9759 32° Northeast 391 450 20,000 1,300 Climbing FlightAware ADS-B (KHOU)
Tue 02:56:51 PM 30.8036 -94.9445 29° Northeast 392 451 20,700 1,322 Climbing FlightAware ADS-B (KHOU)
Tue 02:57:21 PM 30.8514 -94.9127 30° Northeast 397 457 21,300 1,200 Climbing FlightAware ADS-B (KHOU)
Tue 02:57:51 PM 30.8990 -94.8806 30° Northeast 400 460 21,900 1,279 Climbing FlightAware ADS-B (KHOU)
Tue 02:58:22 PM 30.9484 -94.8472 30° Northeast 402 463 22,600 1,100 Climbing FlightAware ADS-B (KHOU)
Tue 02:58:51 PM 30.9959 -94.8147 30° Northeast 406 467 23,000 500 Climbing FlightAware ADS-B (KHOU)
Tue 02:59:22 PM 31.0439 -94.7819 30° Northeast 406 467 23,100 590 Climbing FlightAware ADS-B (KHOU)
Tue 02:59:52 PM 31.0928 -94.7485 30° Northeast 409 471 23,600 1,100 Climbing FlightAware ADS-B (KHOU)
Tue 03:00:22 PM 31.1429 -94.7144 30° Northeast 411 473 24,200 1,017 Climbing FlightAware ADS-B (KHOU)
Tue 03:00:51 PM 31.1918 -94.6808 30° Northeast 416 479 24,600 1,000 Climbing FlightAware ADS-B (KHOU)
Tue 03:01:22 PM 31.2407 -94.6474 30° Northeast 419 482 25,200 1,000 Climbing FlightAware ADS-B (KHOU)
Tue 03:01:51 PM 31.2923 -94.6119 30° Northeast 425 489 25,600 814 Climbing FlightAware ADS-B (KHOU)
Tue 03:02:21 PM 31.3436 -94.5766 30° Northeast 429 494 26,000 1,082 Climbing FlightAware ADS-B (KHOU)
Tue 03:02:52 PM 31.3950 -94.5411 30° Northeast 426 490 26,700 1,300 Climbing FlightAware ADS-B (KHOU)
Tue 03:03:21 PM 31.4449 -94.5069 30° Northeast 429 494 27,300 1,100 Climbing FlightAware ADS-B (KHOU)
Tue 03:03:52 PM 31.4965 -94.4712 30° Northeast 433 498 27,800 1,082 Climbing FlightAware ADS-B (KHOU)
Tue 03:04:22 PM 31.5506 -94.4339 30° Northeast 435 501 28,400 1,119 Climbing FlightAware ADS-B (KHOU)
Tue 03:04:51 PM 31.5951 -94.4033 30° Northeast 435 501 28,900 1,100 Climbing FlightAware ADS-B (KHOU)
Tue 03:05:22 PM 31.6544 -94.3622 30° Northeast 436 502 29,500 1,000 Climbing FlightAware ADS-B (KHOU)
Tue 03:05:51 PM 31.7061 -94.3262 30° Northeast 441 507 29,900 915 Climbing FlightAware ADS-B (KHOU)
Tue 03:06:21 PM 31.7563 -94.2914 30° Northeast 444 511 30,400 900 Climbing FlightAware ADS-B (KHOU)
Tue 03:06:51 PM 31.8132 -94.2518 30° Northeast 448 516 30,800 882 Climbing FlightAware ADS-B (KHOU)
Tue 03:07:29 PM 31.8807 -94.2047 30° Northeast 451 519 31,400 1,059 Climbing FlightAware ADS-B
Tue 03:07:59 PM 31.9352 -94.1667 30° Northeast 449 517 32,000 1,180 Climbing FlightAware ADS-B
Tue 03:08:30 PM 31.9897 -94.1285 30° Northeast 446 513 32,600 1,065 Climbing FlightAware ADS-B
Tue 03:09:01 PM 32.0454 -94.0898 30° Northeast 446 513 33,100 1,000 Climbing FlightAware ADS-B (KHOU)
Tue 03:09:36 PM 32.0601 -94.0796 30° Northeast 445 512 33,700 1,120 Climbing FlightAware ADS-B (KHOU)
Tue 03:10:16 PM 32.1785 -93.9964 31° Northeast 440 506 34,500 930 Climbing FlightAware ADS-B (KHOU)
Tue 03:10:47 PM 32.2325 -93.9583 31° Northeast 443 510 34,800 429 Climbing FlightAware ADS-B
Tue 03:11:26 PM 32.2996 -93.9111 31° Northeast 451 519 35,000 245 Climbing FlightAware ADS-B
Tue 03:11:36 PM 32.3180 -93.8982 30° Northeast 453 521 35,000  Level FlightAware ADS-B (KHOU)
Tue 03:12:04 PM 32.3633 -93.8663 30° Northeast 457 526 35,000  Level FlightAware ADS-B (KHOU)
Tue 03:12:25 PM 32.4050 -93.8367 31° Northeast 455 524 35,000  Level FlightAware ADS-B (KHOU)
Tue 03:12:47 PM 32.4484 -93.8061 31° Northeast 453 521 35,000  Level FlightAware ADS-B
Tue 03:13:27 PM 32.5187 -93.7564 31° Northeast 453 521 35,000  Level FlightAware ADS-B
Tue 03:14:06 PM 32.5906 -93.7054 30° Northeast 454 522 35,000  Level FlightAware ADS-B (KHOU)
Tue 03:14:36 PM 32.6438 -93.6675 31° Northeast 457 526 35,000  Level FlightAware ADS-B (KHOU)
Tue 03:14:47 PM 32.6634 -93.6536 31° Northeast 458 527 35,000  Level FlightAware ADS-B
Tue 03:14:54 PM 32.6561 -93.6587 31° Northeast 456 525 35,000  Level FlightAware ADS-B (KHOU)
Tue 03:15:27 PM 32.7358 -93.6019 31° Northeast 457 526 35,000  Level FlightAware ADS-B
Tue 03:15:36 PM 32.7520 -93.5905 31° Northeast 459 528 35,000  Level FlightAware ADS-B (KHOU)
Tue 03:15:44 PM 32.7610 -93.5840 31° Northeast 459 528 35,000  Level FlightAware ADS-B (KHOU)
Tue 03:16:07 PM 32.8049 -93.5525 31° Northeast 461 531 35,000  Level FlightAware ADS-B
Tue 03:16:45 PM 32.8799 -93.4984 34° Northeast 461 531 35,000  Level FlightAware ADS-B
Tue 03:17:27 PM 32.9465 -93.4367 41° Northeast 464 534 35,000  Level FlightAware ADS-B (KHOU)
Tue 03:17:56 PM 32.9969 -93.3843 40° Northeast 463 533 35,000  Level FlightAware ADS-B (KHOU)
Tue 03:18:07 PM 33.0141 -93.3665 41° Northeast 464 534 35,000  Level FlightAware ADS-B
Tue 03:18:10 PM 33.0118 -93.3689 40° Northeast 463 533 35,000  Level FlightAware ADS-B (KHOU)
Tue 03:19:31 PM 33.1490 -93.2253 41° Northeast 467 537 35,000  Level FlightAware ADS-B (KHOU)
Tue 03:20:11 PM 33.2092 -93.1622 41° Northeast 467 537 35,000  Level Fort Worth Center
Tue 03:21:13 PM 33.3067 -93.0592 41° Northeast 471 542 35,000 242 Level Fort Worth Center
Tue 03:22:15 PM 33.4047 -92.9556 41° Northeast 470 541 35,500 677 Climbing Fort Worth Center
Tue 03:23:17 PM 33.5022 -92.8519 42° Northeast 473 544 36,400 720 Climbing Fort Worth Center
Tue 03:24:20 PM 33.5989 -92.7486 42° Northeast 467 537 37,000 288 Climbing Fort Worth Center
Tue 03:25:22 PM 33.7147 -92.6247 42° Northeast 468 539 37,000  Level Fort Worth Center
Tue 03:26:24 PM 33.8119 -92.5206 42° Northeast 468 539 37,000  Level Fort Worth Center
Tue 03:27:26 PM 33.9086 -92.4164 42° Northeast 466 536 37,000  Level Fort Worth Center
Tue 03:28:28 PM 34.0047 -92.3122 42° Northeast 463 533 37,000  Level Fort Worth Center
Tue 03:29:30 PM 34.1011 -92.2083 42° Northeast 456 525 37,000  Level Fort Worth Center
Tue 03:30:33 PM 34.1958 -92.1053 42° Northeast 457 526 37,000  Level Fort Worth Center
Tue 03:31:35 PM 34.3058 -91.9853 42° Northeast 462 532 37,000  Level Fort Worth Center
Tue 03:32:37 PM 34.4008 -91.8814 42° Northeast 462 532 37,000  Level Fort Worth Center
Tue 03:33:39 PM 34.4947 -91.7781 42° Northeast 457 526 37,000  Level Fort Worth Center
Tue 03:36:12 PM 34.7333 -91.5147 42° Northeast 451 519 37,000  Level Memphis Center
Tue 03:37:14 PM 34.8306 -91.4075 42° Northeast 458 527 37,000  Level Memphis Center
Tue 03:38:16 PM 34.9392 -91.2858 43° Northeast 454 522 37,000  Level Memphis Center
Tue 03:39:19 PM 35.0314 -91.1831 42° Northeast 450 518 37,000  Level Memphis Center
Tue 03:40:21 PM 35.1236 -91.0797 42° Northeast 447 514 37,000  Level Memphis Center
Tue 03:41:23 PM 35.2153 -90.9764 43° Northeast 445 512 37,000  Level Memphis Center
Tue 03:42:25 PM 35.3072 -90.8728 43° Northeast 449 517 37,000  Level Memphis Center
Tue 03:43:27 PM 35.4025 -90.7644 43° Northeast 450 518 37,000  Level Memphis Center
Tue 03:44:29 PM 35.5106 -90.6417 43° Northeast 455 524 37,000  Level Memphis Center
Tue 03:45:31 PM 35.6031 -90.5364 43° Northeast 449 517 37,000  Level Memphis Center
Tue 03:46:34 PM 35.6972 -90.4286 43° Northeast 454 522 37,000  Level Memphis Center
Tue 03:47:36 PM 35.7897 -90.3219 43° Northeast 457 526 37,000  Level Memphis Center
Tue 03:48:38 PM 35.8831 -90.2147 43° Northeast 459 528 37,000  Level Memphis Center
Tue 03:49:40 PM 35.9756 -90.1078 43° Northeast 459 528 37,000  Level Memphis Center
Tue 03:50:42 PM 36.0686 -89.9997 43° Northeast 458 527 37,000  Level Memphis Center
Tue 03:51:44 PM 36.1808 -89.8694 43° Northeast 460 529 37,000  Level Memphis Center
Tue 03:52:46 PM 36.2756 -89.7592 43° Northeast 473 544 37,000  Level Memphis Center
Tue 03:53:48 PM 36.3722 -89.6456 43° Northeast 464 534 37,000  Level Memphis Center
Tue 03:54:51 PM 36.4653 -89.5358 43° Northeast 467 537 37,000  Level Memphis Center
Tue 03:55:53 PM 36.5625 -89.4208 44° Northeast 475 547 37,000  Level Memphis Center
Tue 03:56:55 PM 36.6589 -89.3067 44° Northeast 473 544 37,000  Level Memphis Center
Tue 03:57:57 PM 36.7539 -89.1936 44° Northeast 466 536 37,000  Level Memphis Center
Tue 03:58:59 PM 36.8489 -89.0806 44° Northeast 471 542 37,000  Level Memphis Center
Tue 04:00:01 PM 36.9628 -88.9436 44° Northeast 474 545 37,000  Level Memphis Center
Tue 04:01:04 PM 37.0583 -88.8286 44° Northeast 473 544 37,000  Level Memphis Center
Tue 04:02:06 PM 37.1533 -88.7136 44° Northeast 472 543 37,000  Level Memphis Center
Tue 04:03:08 PM 37.2481 -88.5986 44° Northeast 476 548 37,000  Level Memphis Center
Tue 04:04:10 PM 37.3422 -88.4847 44° Northeast 471 542 37,000  Level Memphis Center
Tue 04:05:12 PM 37.4392 -88.3664 44° Northeast 472 543 37,000  Level Memphis Center
Tue 04:06:14 PM 37.5500 -88.2297 44° Northeast 474 545 37,000  Level Memphis Center
Tue 04:07:16 PM 37.6453 -88.1125 44° Northeast 476 548 37,000  Level Memphis Center
Tue 04:08:19 PM 37.7400 -87.9958 44° Northeast 477 549 37,000  Level Memphis Center
Tue 04:09:21 PM 37.8308 -87.8831 44° Northeast 477 549 37,000  Level Memphis Center
Tue 04:10:23 PM 37.9397 -87.7414 46° Northeast 473 544 37,000  Level Memphis Center
Tue 04:11:51 PM 38.0550 -87.5633 51° Northeast 474 545 37,000  Level Indianapolis Center
Tue 04:12:54 PM 38.1375 -87.4339 51° Northeast 483 556 37,000  Level Indianapolis Center
Tue 04:13:56 PM 38.2219 -87.3006 51° Northeast 485 558 37,000  Level Indianapolis Center
Tue 04:14:58 PM 38.3256 -87.1364 51° Northeast 484 557 37,000  Level Indianapolis Center
Tue 04:17:02 PM 38.4825 -86.8867 51° Northeast 481 554 37,000  Level Indianapolis Center
Tue 04:20:12 PM 38.7636 -86.4327 52° Northeast 483 556 37,000  Level FlightAware ADS-B
Tue 04:22:00 PM 38.8856 -86.2121 51° Northeast  Level FlightAware Approximate
Tue 04:22:48 PM 38.9787 -86.0816 52° Northeast 478 550 37,000  Level FlightAware ADS-B
Tue 04:23:24 PM 39.0277 -86.0007 52° Northeast 474 545 37,000  Level FlightAware ADS-B (KCVG)
Tue 04:24:22 PM 39.0197 -86.0141 64° Northeast 476 548 37,000 157 Level FlightAware ADS-B
Tue 04:25:19 PM 39.1308 -85.7458 64° Northeast 480 552 37,300 403 Climbing Indianapolis Center
Tue 04:26:21 PM 39.1444 -85.5764 84° East 480 552 37,800 336 Climbing Indianapolis Center
Tue 04:27:24 PM 39.1781 -85.3753 78° East 488 562 38,000 96 Climbing Indianapolis Center
Tue 04:28:26 PM 39.2633 -85.2450 50° Northeast 477 549 38,000  Level Indianapolis Center
Tue 04:29:28 PM 39.3519 -85.1200 47° Northeast 473 544 38,000  Level Indianapolis Center
Tue 04:30:30 PM 39.4439 -84.9906 47° Northeast 479 551 38,000  Level Indianapolis Center
Tue 04:31:32 PM 39.5375 -84.8583 47° Northeast 476 548 38,000  Level Indianapolis Center
Tue 04:32:34 PM 39.6267 -84.7317 48° Northeast 476 548 38,000  Level Indianapolis Center
Tue 04:33:36 PM 39.7158 -84.6042 48° Northeast 477 549 38,000  Level Indianapolis Center
Tue 04:34:39 PM 39.8056 -84.4758 48° Northeast 475 547 38,000  Level Indianapolis Center
Tue 04:35:41 PM 39.9136 -84.3208 48° Northeast 481 554 38,000  Level Indianapolis Center
Tue 04:36:43 PM 40.0022 -84.1919 48° Northeast 470 541 38,000  Level Indianapolis Center
Tue 04:37:45 PM 40.0906 -84.0642 48° Northeast 474 545 38,000  Level Indianapolis Center
Tue 04:38:47 PM 40.1797 -83.9339 48° Northeast 479 551 38,000  Level Indianapolis Center
Tue 04:40:30 PM 40.3378 -83.7022 48° Northeast 467 537 38,000 -36 Level Cleveland Center
Tue 04:41:32 PM 40.4242 -83.5744 48° Northeast 467 537 37,900 -484 Descending Cleveland Center
Tue 04:42:34 PM 40.5103 -83.4469 48° Northeast 465 535 37,000 -435 Descending Cleveland Center
Tue 04:43:36 PM 40.5958 -83.3197 48° Northeast 461 531 37,000  Level Cleveland Center
Tue 04:44:39 PM 40.6794 -83.1950 49° Northeast 446 513 37,000  Level Cleveland Center
Tue 04:45:41 PM 40.7619 -83.0706 49° Northeast 449 517 37,000  Level Cleveland Center
Tue 04:46:43 PM 40.8606 -82.9222 49° Northeast 445 512 37,000  Level Cleveland Center
Tue 04:47:45 PM 40.9411 -82.8003 49° Northeast 445 512 37,000  Level Cleveland Center
Tue 04:48:47 PM 41.0222 -82.6772 49° Northeast 447 514 37,000  Level Cleveland Center
Tue 04:49:49 PM 41.1019 -82.5553 49° Northeast 444 511 37,000  Level Cleveland Center
Tue 04:50:52 PM 41.1864 -82.4256 49° Northeast 441 507 37,000 -432 Level Cleveland Center
Tue 04:51:54 PM 41.2675 -82.3011 49° Northeast 447 514 36,100 -1,935 Descending Cleveland Center
Tue 04:52:56 PM 41.3711 -82.1589 46° Northeast 448 516 33,000 -1,500 Descending Cleveland Center
Tue 04:53:58 PM 41.4842 -82.0875 25° Northeast 443 510 33,000  Level Cleveland Center
Tue 04:55:00 PM 41.5958 -82.0214 24° Northeast 445 512 33,000  Level Cleveland Center
Tue 04:56:02 PM 41.7089 -81.9542 24° Northeast 446 513 33,000 -635 Level Cleveland Center
Tue 05:01:18 PM 42.3246 -81.5852 24° Northeast 458 527 29,000 -694 Descending FlightAware ADS-B (CYYZ)
Tue 05:01:48 PM 42.3837 -81.5493 24° Northeast 457 526 29,000  Level FlightAware ADS-B (CYYZ)
Tue 05:02:34 PM 42.4707 -81.4965 24° Northeast 456 525 29,000  Level FlightAware ADS-B (CYYZ)
Tue 05:03:04 PM 42.5270 -81.4622 24° Northeast 457 526 29,000 -474 Level FlightAware ADS-B (CYYZ)
Tue 05:03:50 PM 42.6156 -81.4081 24° Northeast 449 517 28,400 -1,263 Descending FlightAware ADS-B (CYYZ)
Tue 05:04:20 PM 42.6736 -81.3727 24° Northeast 446 513 27,400 -2,000 Descending FlightAware ADS-B (CYYZ)
Tue 05:04:50 PM 42.7285 -81.3389 24° Northeast 443 510 26,400 -1,974 Descending FlightAware ADS-B (CYYZ)
Tue 05:05:36 PM 42.8146 -81.2860 24° Northeast 434 499 24,900 -1,579 Descending FlightAware ADS-B (CYYZ)
Tue 05:06:06 PM 42.8686 -81.2522 24° Northeast 433 498 24,400 -947 Descending FlightAware ADS-B (CYYZ)
Tue 05:06:14 PM 42.8656 -81.2541 25° Northeast 434 499 24,300 -800 Descending FlightAware ADS-B (KFYG)
Tue 05:06:36 PM 42.9234 -81.2172 25° Northeast 432 497 24,000 -340 Descending FlightAware ADS-B (CYYZ)
Tue 05:07:07 PM 42.9774 -81.1823 25° Northeast 434 499 24,000  Level FlightAware ADS-B (CYYZ)
Tue 05:07:34 PM 43.0259 -81.1512 25° Northeast 434 499 24,000  Level FlightAware ADS-B (KFYG)
Tue 05:07:37 PM 43.0344 -81.1457 25° Northeast 433 498 24,000  Level FlightAware ADS-B (CYYZ)
Tue 05:08:07 PM 43.0903 -81.1102 24° Northeast 432 497 24,000 -98 Level FlightAware ADS-B (CYYZ)
Tue 05:08:38 PM 43.1444 -81.0762 24° Northeast 432 497 23,900 -638 Descending FlightAware ADS-B (CYYZ)
Tue 05:08:54 PM 43.1744 -81.0571 25° Northeast 431 496 23,500 -1,600 Descending FlightAware ADS-B (KFYG)
Tue 05:09:23 PM 43.2257 -81.0210 37° Northeast 431 496 22,700 -1,579 Descending FlightAware ADS-B (CYYZ)
Tue 05:09:32 PM 43.2387 -81.0044 49° Northeast 434 499 22,500 -1,742 Descending FlightAware ADS-B (CYYZ)
Tue 05:09:54 PM 43.2628 -80.9556 62° Northeast 432 497 21,800 -2,250 Descending FlightAware ADS-B (CYYZ)
Tue 05:10:12 PM 43.2775 -80.9108 67° East 430 495 21,000 -2,533 Descending FlightAware ADS-B (KFYG)
Tue 05:10:39 PM 43.2999 -80.8435 65° Northeast 424 488 19,900 -2,632 Descending FlightAware ADS-B (CYYZ)
Tue 05:11:09 PM 43.3248 -80.7713 64° Northeast 413 475 18,500 -3,346 Descending FlightAware ADS-B (CYYZ)
Tue 05:11:31 PM 43.2838 -80.8914 65° Northeast 422 486 17,000 -4,000 Descending FlightAware ADS-B (CYKF)
Tue 05:11:39 PM 43.3499 -80.6993 64° Northeast 420 483 16,500 -3,077 Descending FlightAware ADS-B (CYYZ)
Tue 05:12:10 PM 43.3750 -80.6269 64° Northeast 412 474 15,000 -3,000 Descending FlightAware ADS-B (CYYZ)
Tue 05:12:55 PM 43.4117 -80.5217 64° Northeast 401 461 12,700 -2,960 Descending FlightAware ADS-B (CYYZ)
Tue 05:13:25 PM 43.4355 -80.4524 64° Northeast 391 450 11,300 -1,932 Descending FlightAware ADS-B (CYYZ)
Tue 05:13:54 PM 43.4564 -80.3911 68° East 363 418 10,800 -1,000 Descending FlightAware ADS-B (KFYG)
Tue 05:13:55 PM 43.4571 -80.3890 68° East 360 414 10,800 -750 Level FlightAware ADS-B (CYYZ)
Tue 05:14:26 PM 43.4712 -80.3246 77° East 324 373 10,400 -706 Descending FlightAware ADS-B (CYYZ)
Tue 05:14:29 PM 43.4721 -80.3186 79° East 320 368 10,400 -800 Level FlightAware ADS-B (CYKF)
Tue 05:14:56 PM 43.4800 -80.2650 78° East 313 360 10,000 -1,317 Descending FlightAware ADS-B (CYYZ)
Tue 05:15:10 PM 43.4843 -80.2365 78° East 313 360 9,500 -2,000 Descending FlightAware ADS-B (CYYZ)
Tue 05:15:14 PM 43.4852 -80.2308 78° East 314 361 9,400 -1,909 Descending FlightAware ADS-B (KFYG)
Tue 05:15:32 PM 43.4901 -80.1976 82° East 312 359 8,800 -1,778 Descending FlightAware ADS-B (KFYG)
Tue 05:15:41 PM 43.4917 -80.1783 87° East 311 358 8,600 -2,250 Descending FlightAware ADS-B (CYYZ)
Tue 05:15:48 PM 43.4918 -80.1670 94° East 310 357 8,200 -1,600 Descending FlightAware ADS-B (KFYG)
Tue 05:16:11 PM 43.4874 -80.1182 99° East 300 345 7,800 -1,231 Descending FlightAware ADS-B (CYYZ)
Tue 05:16:27 PM 43.4917 -80.1783 99° East 295 339 7,400 -1,600 Descending FlightAware ADS-B (CYKF)
Tue 05:16:41 PM 43.4810 -80.0629 97° East 293 337 7,000 -1,579 Descending FlightAware ADS-B (CYYZ)
Tue 05:16:46 PM 43.4805 -80.0541 91° East 293 337 6,900 -1,333 Descending FlightAware ADS-B (CYYZ)
Tue 05:16:50 PM 43.4809 -80.0454 84° East 293 337 6,800 -1,385 Descending FlightAware ADS-B (CYYZ)
Tue 05:16:59 PM 43.4825 -80.0306 83° East 293 337 6,600 -1,636 Descending FlightAware ADS-B
Tue 05:17:12 PM 43.4858 -80.0060 78° East 290 334 6,200 -1,429 Descending FlightAware ADS-B (CYYZ)
Tue 05:17:20 PM 43.4877 -79.9932 80° East 293 337 6,100 -400 Descending FlightAware ADS-B
Tue 05:17:27 PM 43.4896 -79.9802 78° East 277 319 6,100 -333 Level FlightAware ADS-B (CYYZ)
Tue 05:17:38 PM 43.4908 -79.9727 78° East 265 305 6,000 -400 Descending FlightAware ADS-B (CYHM)
Tue 05:17:57 PM 43.4972 -79.9301 78° East 252 290 5,900 -444 Descending FlightAware ADS-B (CYYZ)
Tue 05:18:05 PM 43.4989 -79.9185 78° East 249 287 5,800 -1,500 Descending FlightAware ADS-B (KFYG)
Tue 05:18:21 PM 43.5022 -79.8972 78° East 244 281 5,300 -1,364 Descending FlightAware ADS-B (KFYG)
Tue 05:18:27 PM 43.5042 -79.8835 78° East 243 280 5,300 -1,143 Level FlightAware ADS-B (CYYZ)
Tue 05:18:42 PM 43.5072 -79.8633 78° East 241 277 4,900 -1,355 Descending FlightAware ADS-B (CYHM)
Tue 05:18:58 PM 43.5133 -79.8389 58° Northeast 240 276 4,600 -857 Descending FlightAware ADS-B (CYYZ)
Tue 05:19:03 PM 43.5163 -79.8331 52° Northeast 241 277 4,600 -1,000 Level FlightAware ADS-B (CYYZ)
Tue 05:19:04 PM 43.5147 -79.8361 51° Northeast 241 277 4,500 -1,412 Descending FlightAware ADS-B (KFYG)
Tue 05:19:20 PM 43.5287 -79.8144 78° East 241 277 4,200 -1,200 Descending FlightAware ADS-B
Tue 05:19:34 PM 43.5405 -79.7978 46° Northeast 235 270 3,900 -1,043 Descending FlightAware ADS-B
Tue 05:19:43 PM 43.5470 -79.7887 46° Northeast 226 260 3,800 -947 Descending FlightAware ADS-B (CYYZ)
Tue 05:19:53 PM 43.5539 -79.7788 46° Northeast 235 270 3,600 -1,200 Descending FlightAware ADS-B
Tue 05:20:13 PM 43.5675 -79.7590 46° Northeast 198 228 3,200 -1,250 Descending FlightAware ADS-B (CYYZ)
Tue 05:20:17 PM 43.5694 -79.7563 46° Northeast 235 270 3,100 -968 Descending FlightAware ADS-B
Tue 05:20:44 PM 43.5850 -79.7337 46° Northeast 178 205 2,700 -800 Descending FlightAware ADS-B (CYYZ)
Tue 05:20:47 PM 43.5870 -79.7308 46° Northeast 180 207 2,700 -800 Level FlightAware ADS-B (KFYG)
Tue 05:20:59 PM 43.5937 -79.7212 46° Northeast 178 205 2,500 -1,143 Descending FlightAware ADS-B (CYYZ)
Tue 05:21:08 PM 43.5984 -79.7143 46° Northeast 175 201 2,300 -857 Descending FlightAware ADS-B (KFYG)
Tue 05:21:27 PM 43.6093 -79.6986 46° Northeast 170 196 2,100 -857 Descending FlightAware ADS-B (KFYG)
Tue 05:21:29 PM 43.6103 -79.6972 46° Northeast 169 194 2,000 -1,200 Descending FlightAware ADS-B (CYYZ)
Tue 05:21:47 PM 43.6199 -79.6832 47° Northeast 158 182 1,700 -800 Descending FlightAware ADS-B (KFYG)
Tue 05:21:59 PM 43.6258 -79.6747 46° Northeast 145 167 1,600 -714 Descending FlightAware ADS-B (CYYZ)
Tue 05:22:29 PM 43.6389 -79.6555 45° Northeast 132 152 1,200 -700 Descending FlightAware ADS-B (CYYZ)
Tue 05:22:59 PM 43.6517 -79.6369 46° Northeast 133 153 900 -610 Descending FlightAware ADS-B (CYYZ)
Tue 05:23:28 PM 43.6640 -79.6192 46° Northeast 135 155 600 -295 Descending FlightAware ADS-B (CYYZ)
Tue 05:24:00 PM 43.6728 -79.6064 44° Northeast 53 61 600  Level FlightAware ADS-B (CYYZ)

Login

Don't have an account? Register now (free) for customized features, flight alerts, and more!